Time;durP1;ratioP1;P1;durP2;ratioP2;P2;SDS_P1;SDS_P2;PMS_P1;PMS_P2;Temp;Humidity;BMP_temperature;BMP_pressure;BME280_temperature;BME280_humidity;BME280_pressure;Samples;Min_cycle;Max_cycle;Signal;HPM_P1;HPM_P2
2022/03/22 00:01:36;;;;;;;15.10;8.68;;;;;;;2.19;48.12;100389.59;5115566;28;20044;-94
2022/03/22 00:04:02;;;;;;;15.43;8.68;;;;;;;2.55;46.29;100410.03;5112982;28;20509;-95
2022/03/22 00:06:29;;;;;;;15.30;7.82;;;;;;;3.19;43.42;100419.84;5111852;28;20048;-95
2022/03/22 00:08:56;;;;;;;14.68;8.70;;;;;;;3.38;41.79;100384.44;5112333;28;20504;-94
2022/03/22 00:11:21;;;;;;;15.30;8.60;;;;;;;3.88;40.49;100413.88;5093524;28;20097;-95
2022/03/22 00:13:47;;;;;;;16.52;9.25;;;;;;;3.90;40.06;100400.75;5104263;28;20059;-94
2022/03/22 00:16:13;;;;;;;16.35;10.23;;;;;;;4.13;38.49;100405.72;5107837;28;20062;-93
2022/03/22 00:18:40;;;;;;;17.08;9.45;;;;;;;4.06;38.39;100381.00;5109038;28;20048;-94
2022/03/22 00:21:06;;;;;;;16.20;9.00;;;;;;;4.14;37.57;100383.78;5111889;28;20101;-94
2022/03/22 00:23:32;;;;;;;16.65;9.48;;;;;;;4.18;37.44;100376.00;5111947;28;20042;-95
2022/03/22 00:25:58;;;;;;;17.08;8.98;;;;;;;4.35;36.88;100396.59;5099308;28;20040;-93
2022/03/22 00:28:24;;;;;;;17.20;9.20;;;;;;;4.19;36.97;100371.66;5092672;28;20044;-95
2022/03/22 00:30:50;;;;;;;13.18;8.07;;;;;;;4.25;36.80;100375.31;5091717;28;20165;-95
2022/03/22 00:33:16;;;;;;;13.15;7.75;;;;;;;4.33;36.62;100372.84;5091849;28;20051;-94
2022/03/22 00:35:43;;;;;;;13.40;7.90;;;;;;;4.40;36.15;100371.25;5104563;28;20497;-94
2022/03/22 00:38:11;;;;;;;16.13;8.10;;;;;;;4.37;36.81;100373.81;5111714;28;20043;-95
2022/03/22 00:40:39;;;;;;;12.30;7.65;;;;;;;4.36;37.07;100398.38;5111645;28;20101;-95
2022/03/22 00:43:05;;;;;;;13.55;8.10;;;;;;;4.17;37.46;100374.25;5111282;28;20044;-93
2022/03/22 00:45:33;;;;;;;14.15;7.35;;;;;;;4.33;36.93;100381.63;5091327;28;20041;-94
2022/03/22 00:48:00;;;;;;;14.15;7.90;;;;;;;4.26;36.86;100378.84;5091282;28;20094;-93
2022/03/22 00:50:28;;;;;;;17.48;8.23;;;;;;;4.05;38.08;100364.28;5091150;28;20044;-94
2022/03/22 00:52:57;;;;;;;12.13;7.73;;;;;;;4.08;38.16;100374.03;5090810;28;20044;-94
2022/03/22 00:55:24;;;;;;;18.50;9.00;;;;;;;4.06;38.66;100378.34;5094423;28;20135;-95
2022/03/22 00:57:51;;;;;;;17.25;8.88;;;;;;;4.06;39.00;100394.16;5097596;28;20520;-94
2022/03/22 01:00:18;;;;;;;13.70;7.68;;;;;;;3.84;39.01;100358.50;5097982;28;20047;-95
2022/03/22 01:02:49;;;;;;;15.48;8.32;;;;;;;3.90;39.99;100384.94;5097378;28;20093;-94
2022/03/22 01:05:18;;;;;;;13.77;7.82;;;;;;;3.59;41.77;100365.72;5097602;28;20044;-95
2022/03/22 01:07:45;;;;;;;13.38;7.82;;;;;;;3.55;40.58;100369.13;5097545;28;20044;-91
2022/03/22 01:10:13;;;;;;;14.75;8.23;;;;;;;3.69;40.66;100390.56;5097191;28;20401;-94
2022/03/22 01:12:42;;;;;;;16.98;9.07;;;;;;;3.62;40.11;100360.56;5081312;28;20128;-94
2022/03/22 01:15:10;;;;;;;13.52;8.32;;;;;;;3.78;39.94;100368.88;5076976;28;20044;-94
2022/03/22 01:17:36;;;;;;;15.23;8.88;;;;;;;4.01;39.49;100385.22;5079889;28;20057;-94
2022/03/22 01:20:05;;;;;;;17.55;8.57;;;;;;;4.05;39.75;100387.09;5090899;28;20051;-94
2022/03/22 01:22:30;;;;;;;14.88;7.55;;;;;;;3.95;39.15;100367.56;5076927;28;20064;-95
2022/03/22 01:24:56;;;;;;;14.52;8.65;;;;;;;3.99;39.08;100364.16;5086983;28;20051;-95
2022/03/22 01:27:24;;;;;;;14.13;8.10;;;;;;;3.88;39.83;100377.03;5096791;28;20588;-94
2022/03/22 01:29:50;;;;;;;13.70;7.85;;;;;;;3.57;40.91;100359.53;5097136;28;20507;-95
2022/03/22 01:32:16;;;;;;;12.60;7.95;;;;;;;3.46;39.97;100342.59;5096737;28;20048;-94
2022/03/22 01:34:42;;;;;;;15.55;7.95;;;;;;;3.36;40.72;100351.06;5096565;28;20119;-95
2022/03/22 01:37:08;;;;;;;15.30;7.55;;;;;;;3.47;42.78;100383.81;5097172;28;20043;-95
2022/03/22 01:39:34;;;;;;;14.00;7.30;;;;;;;3.25;42.58;100369.19;5097082;28;20078;-95
2022/03/22 01:42:00;;;;;;;12.35;6.93;;;;;;;3.13;42.40;100364.47;5096552;28;20048;-94
2022/03/22 01:44:28;;;;;;;15.02;7.45;;;;;;;2.87;43.64;100351.47;5096943;28;20083;-96
2022/03/22 01:46:59;;;;;;;12.50;7.28;;;;;;;2.86;44.21;100378.59;5082736;28;20402;-96
2022/03/22 01:49:25;;;;;;;14.52;7.80;;;;;;;2.70;43.87;100364.97;5076814;28;20371;-94
2022/03/22 01:51:52;;;;;;;12.95;7.68;;;;;;;2.60;45.90;100388.31;5076929;28;20048;-95
2022/03/22 01:54:18;;;;;;;15.77;7.78;;;;;;;2.30;46.60;100358.44;5076606;28;20041;-94
2022/03/22 01:56:44;;;;;;;12.68;7.13;;;;;;;2.19;45.95;100355.47;5076618;28;20114;-93
2022/03/22 01:59:10;;;;;;;14.40;7.70;;;;;;;2.07;47.65;100345.50;5076784;28;20493;-93
2022/03/22 02:07:40;;;;;;;17.17;7.82;;;;;;;1.88;47.89;100364.09;5113212;27;20365;-93
2022/03/22 02:10:07;;;;;;;15.50;8.02;;;;;;;1.85;48.42;100368.41;5113161;28;20130;-95
2022/03/22 02:12:33;;;;;;;12.75;7.05;;;;;;;1.69;49.10;100360.84;5113429;28;20127;-94
2022/03/22 02:14:59;;;;;;;13.20;7.10;;;;;;;1.63;48.42;100372.03;5112792;28;20079;-94
2022/03/22 02:17:25;;;;;;;14.18;8.10;;;;;;;1.51;49.30;100358.47;5113462;28;20040;-93
2022/03/22 02:19:51;;;;;;;12.50;7.30;;;;;;;1.49;48.44;100365.41;5113270;28;20397;-94
2022/03/22 02:22:18;;;;;;;15.70;7.07;;;;;;;1.42;49.02;100368.66;5113882;28;20048;-93
2022/03/22 02:24:46;;;;;;;14.10;7.03;;;;;;;1.49;49.18;100381.13;5113505;28;20067;-94
2022/03/22 02:27:12;;;;;;;11.98;6.72;;;;;;;1.37;48.76;100368.50;5113404;28;20095;-94
2022/03/22 02:29:38;;;;;;;15.45;7.78;;;;;;;1.28;48.77;100365.56;5113763;28;20074;-95
2022/03/22 02:32:07;;;;;;;14.27;7.22;;;;;;;1.30;49.16;100363.88;5114030;28;20085;-94
2022/03/22 02:34:35;;;;;;;;;;;;;;;1.50;48.33;100387.28;5113917;28;20071;-95
2022/03/22 02:37:01;;;;;;;17.70;8.20;;;;;;;1.35;50.16;100380.66;5113593;28;19915;-94
2022/03/22 02:39:26;;;;;;;14.20;8.25;;;;;;;1.24;49.63;100355.78;5112834;28;20047;-94
2022/03/22 02:41:54;;;;;;;14.35;7.68;;;;;;;1.12;51.37;100357.97;5112526;28;20055;-94
2022/03/22 02:44:20;;;;;;;15.30;7.47;;;;;;;0.99;51.15;100344.41;5112682;28;20044;-94
2022/03/22 02:46:46;;;;;;;14.90;8.20;;;;;;;1.07;50.65;100377.88;5113000;28;20032;-95
2022/03/22 02:49:13;;;;;;;15.32;8.02;;;;;;;0.99;52.05;100372.34;5113097;28;20050;-94
2022/03/22 02:51:38;;;;;;;13.88;8.05;;;;;;;0.83;52.37;100349.94;5113818;28;20082;-94
2022/03/22 02:54:05;;;;;;;16.48;8.95;;;;;;;0.78;53.36;100372.41;5113503;28;20043;-95
2022/03/22 02:56:30;;;;;;;16.30;9.07;;;;;;;0.50;54.50;100345.19;5106414;28;20045;-94
2022/03/22 02:58:58;;;;;;;18.63;9.90;;;;;;;0.42;55.15;100362.31;5113075;28;20039;-94
2022/03/22 03:01:24;;;;;;;17.55;9.75;;;;;;;0.35;55.92;100369.03;5113373;28;20070;-94
2022/03/22 03:03:50;;;;;;;15.30;8.15;;;;;;;0.19;55.74;100346.59;5113207;28;20051;-93
2022/03/22 03:06:15;;;;;;;14.07;8.02;;;;;;;0.29;54.58;100352.22;5113235;28;20040;-95
2022/03/22 03:08:41;;;;;;;15.60;8.43;;;;;;;0.28;53.87;100345.19;5112814;28;20370;-94
2022/03/22 03:11:08;;;;;;;14.93;7.85;;;;;;;0.48;53.32;100354.72;5112307;28;20039;-95
2022/03/22 03:16:33;;;;;;;13.23;8.15;;;;;;;0.63;53.31;100369.22;5114558;27;20377;-94
2022/03/22 03:18:59;;;;;;;16.75;8.43;;;;;;;0.63;53.65;100341.34;5113748;28;20135;-95
2022/03/22 03:21:25;;;;;;;14.38;8.68;;;;;;;0.82;53.91;100361.22;5114066;28;20488;-95
2022/03/22 03:23:51;;;;;;;19.45;8.57;;;;;;;0.91;52.84;100372.06;5113363;28;20040;-95
2022/03/22 03:26:17;;;;;;;14.07;7.63;;;;;;;0.89;54.12;100367.59;5113237;28;20036;-94
2022/03/22 03:28:42;;;;;;;13.70;7.88;;;;;;;0.75;54.17;100367.06;5113411;28;20481;-96
2022/03/22 03:31:08;;;;;;;16.08;8.45;;;;;;;0.77;54.54;100355.81;5113563;28;20422;-95
2022/03/22 03:33:36;;;;;;;16.40;7.60;;;;;;;0.65;54.72;100360.63;5113308;28;20443;-95
2022/03/22 03:36:03;;;;;;;18.73;8.77;;;;;;;0.64;55.72;100364.03;5115965;28;20142;-95
2022/03/22 03:38:29;;;;;;;19.20;9.50;;;;;;;0.55;56.29;100364.59;5117392;28;20505;-95
2022/03/22 03:43:55;;;;;;;17.38;10.52;;;;;;;0.35;57.95;100394.31;5115126;27;20388;-94
2022/03/22 03:49:20;;;;;;;19.45;9.88;;;;;;;0.06;59.58;100380.94;5155699;27;20366;-95
2022/03/22 03:51:46;;;;;;;19.67;10.15;;;;;;;-0.05;60.57;100401.41;5155355;27;20039;-93
2022/03/22 03:54:12;;;;;;;18.30;10.05;;;;;;;-0.28;61.17;100374.31;5155219;27;20068;-95
2022/03/22 03:56:38;;;;;;;21.83;9.80;;;;;;;-0.27;61.40;100396.13;5155857;27;20469;-95
2022/03/22 03:59:03;;;;;;;23.33;11.55;;;;;;;-0.57;61.99;100380.91;5155582;27;20146;-95
2022/03/22 04:01:29;;;;;;;18.38;9.15;;;;;;;-0.71;62.23;100379.44;5157653;27;20047;-96
2022/03/22 04:03:55;;;;;;;23.55;10.50;;;;;;;-0.72;62.64;100404.63;5157545;27;20061;-93
2022/03/22 04:06:22;;;;;;;20.33;10.20;;;;;;;-0.70;62.81;100416.06;5157167;27;20043;-94
2022/03/22 04:08:48;;;;;;;19.25;10.52;;;;;;;-0.84;63.04;100406.72;5154973;27;20035;-94
2022/03/22 04:11:14;;;;;;;19.45;9.75;;;;;;;-1.05;63.15;100380.53;5156084;27;20042;-95
2022/03/22 04:13:42;;;;;;;19.45;9.32;;;;;;;-0.93;62.80;100401.06;5155599;27;20422;-94
2022/03/22 04:16:08;;;;;;;19.80;9.50;;;;;;;-1.05;63.75;100384.03;5154948;27;20043;-95
2022/03/22 04:18:34;;;;;;;17.02;8.75;;;;;;;-1.10;63.93;100388.16;5154654;27;20039;-93
2022/03/22 04:21:01;;;;;;;16.80;9.30;;;;;;;-1.15;64.18;100392.28;5153408;27;20050;-94
2022/03/22 04:23:30;;;;;;;20.27;10.90;;;;;;;-1.05;63.92;100389.25;5153797;27;20045;-93
2022/03/22 04:25:56;;;;;;;18.70;10.13;;;;;;;-1.05;63.51;100377.91;5144035;27;20039;-94
2022/03/22 04:34:21;;;;;;;19.90;9.27;;;;;;;-0.95;61.90;100389.69;5155231;27;20839;-93
2022/03/22 04:36:55;;;;;;;20.15;9.50;;;;;;;-0.90;63.29;100424.72;5154422;27;20107;-94
2022/03/22 04:39:21;;;;;;;20.52;10.13;;;;;;;-1.11;64.54;100395.91;5154460;27;20469;-94
2022/03/22 04:41:47;;;;;;;22.42;10.85;;;;;;;-1.11;64.77;100409.84;5153845;27;20070;-95
2022/03/22 04:44:13;;;;;;;20.70;10.30;;;;;;;-1.15;64.61;100407.03;5154704;27;20111;-95
2022/03/22 04:46:39;;;;;;;18.27;9.88;;;;;;;-1.09;64.78;100420.38;5155026;27;20043;-94
2022/03/22 04:49:05;;;;;;;13.35;8.35;;;;;;;-1.27;64.06;100397.81;5154824;27;20046;-94
2022/03/22 04:57:33;;;;;;;19.38;9.68;;;;;;;-0.90;63.77;100424.72;5156286;27;20379;-94
2022/03/22 04:59:58;;;;;;;18.17;9.68;;;;;;;-0.94;64.21;100418.47;5156047;27;20579;-95
2022/03/22 05:02:24;;;;;;;19.98;10.38;;;;;;;-1.09;64.47;100402.09;5156896;27;20074;-95
2022/03/22 05:04:50;;;;;;;20.30;10.20;;;;;;;-1.13;64.62;100394.94;5157444;27;20066;-95
2022/03/22 05:07:16;;;;;;;16.92;8.85;;;;;;;-1.14;63.29;100401.88;5158622;27;20039;-95
2022/03/22 05:09:42;;;;;;;17.23;9.57;;;;;;;-0.98;61.42;100397.38;5157776;27;20039;-94
2022/03/22 05:12:13;;;;;;;17.58;8.55;;;;;;;-0.84;61.37;100406.72;5156469;27;20444;-95
2022/03/22 05:14:42;;;;;;;19.20;8.95;;;;;;;-0.97;62.16;100400.06;5155587;27;20042;-95
2022/03/22 05:17:08;;;;;;;16.80;9.52;;;;;;;-0.98;62.24;100413.03;5155448;27;20050;-94
2022/03/22 05:19:34;;;;;;;19.45;9.55;;;;;;;-0.95;62.52;100434.06;5155541;27;20072;-94
2022/03/22 05:22:00;;;;;;;18.25;9.63;;;;;;;-1.13;64.05;100416.75;5155149;27;20099;-94
2022/03/22 05:24:26;;;;;;;20.75;10.40;;;;;;;-0.99;64.44;100442.59;5154823;27;20096;-94
2022/03/22 05:26:53;;;;;;;18.20;9.60;;;;;;;-1.07;64.95;100442.22;5154977;27;20039;-94
2022/03/22 05:29:19;;;;;;;21.05;10.43;;;;;;;-1.28;65.57;100419.53;5154974;27;20043;-95
2022/03/22 05:31:46;;;;;;;18.88;9.18;;;;;;;-1.08;64.76;100443.94;5155262;27;20039;-95
2022/03/22 05:34:12;;;;;;;18.88;9.80;;;;;;;-1.27;64.88;100404.75;5157041;27;20078;-94
2022/03/22 05:36:38;;;;;;;20.90;10.07;;;;;;;-1.21;65.23;100422.41;5155535;27;20043;-94
2022/03/22 05:39:04;;;;;;;15.77;8.80;;;;;;;-0.95;62.19;100432.34;5155082;27;20077;-94
2022/03/22 05:41:30;;;;;;;16.85;8.82;;;;;;;-0.77;60.41;100411.38;5154577;27;20039;-95
2022/03/22 05:43:56;;;;;;;17.77;9.02;;;;;;;-0.58;61.25;100407.88;5153789;27;20122;-94
2022/03/22 05:46:22;;;;;;;18.77;9.43;;;;;;;-0.38;61.05;100439.22;5153700;27;20043;-94
2022/03/22 05:48:50;;;;;;;27.73;13.55;;;;;;;-0.12;59.43;100414.19;5154134;27;20556;-95
2022/03/22 05:51:17;;;;;;;33.33;16.38;;;;;;;-0.04;60.96;100420.66;5153939;27;20512;-94
2022/03/22 05:53:43;;;;;;;28.17;13.50;;;;;;;0.07;61.27;100434.16;5155273;27;20106;-95
2022/03/22 05:56:09;;;;;;;24.67;12.57;;;;;;;0.05;61.28;100433.22;5154311;27;20045;-94
2022/03/22 05:58:35;;;;;;;22.40;11.45;;;;;;;0.01;61.20;100426.06;5153991;27;20133;-95
2022/03/22 06:01:01;;;;;;;23.45;12.95;;;;;;;0.05;61.74;100438.44;5155431;27;20046;-95
2022/03/22 06:03:27;;;;;;;27.88;13.40;;;;;;;-0.07;61.78;100413.53;5154138;27;20051;-94
2022/03/22 06:05:54;;;;;;;26.42;13.80;;;;;;;-0.02;61.48;100409.41;5154925;27;20400;-94
2022/03/22 06:08:20;;;;;;;25.95;12.32;;;;;;;0.08;62.46;100436.81;5143751;27;20069;-95
2022/03/22 06:10:46;;;;;;;24.67;13.88;;;;;;;0.11;61.97;100416.03;5140496;27;20047;-94
2022/03/22 06:13:12;;;;;;;25.98;12.65;;;;;;;0.23;61.34;100425.22;5140408;27;20053;-95
2022/03/22 06:15:38;;;;;;;29.45;14.35;;;;;;;0.48;61.79;100434.94;5141054;27;20434;-94
2022/03/22 06:18:05;;;;;;;33.88;16.15;;;;;;;0.59;61.58;100437.16;5140846;27;20419;-95
2022/03/22 06:20:33;;;;;;;31.80;16.38;;;;;;;0.68;61.04;100433.13;5140119;27;20050;-94
2022/03/22 06:23:01;;;;;;;34.17;16.58;;;;;;;0.72;60.77;100430.69;5140834;27;20130;-94
2022/03/22 06:25:28;;;;;;;34.00;16.43;;;;;;;0.89;60.12;100427.81;5141361;27;20356;-94
2022/03/22 06:27:55;;;;;;;26.38;13.93;;;;;;;0.99;59.34;100424.72;5139750;27;20051;-94
2022/03/22 06:30:21;;;;;;;21.98;12.15;;;;;;;1.20;58.14;100429.88;5140304;27;20070;-95
2022/03/22 06:32:49;;;;;;;31.55;12.30;;;;;;;1.46;57.84;100459.69;5139287;27;20039;-93
2022/03/22 06:35:17;;;;;;;21.80;11.38;;;;;;;1.54;56.45;100452.06;5139091;27;20043;-94
2022/03/22 06:37:44;;;;;;;26.50;12.10;;;;;;;1.51;56.33;100439.75;5139480;27;20047;-94
2022/03/22 06:40:14;;;;;;;28.77;13.45;;;;;;;1.63;56.43;100439.31;5139006;27;20095;-93
2022/03/22 06:42:41;;;;;;;;;;;;;;;1.93;56.35;100455.25;5138298;27;20035;-93
2022/03/22 06:45:08;;;;;;;32.80;15.00;;;;;;;1.92;55.90;100424.59;5138506;27;19947;-94
2022/03/22 06:47:34;;;;;;;34.10;16.88;;;;;;;2.19;55.77;100453.50;5142086;27;20049;-93
2022/03/22 06:50:04;;;;;;;28.10;13.70;;;;;;;2.23;55.08;100430.88;5142946;27;20057;-94
2022/03/22 06:52:30;;;;;;;26.92;13.07;;;;;;;2.36;55.12;100426.91;5142711;27;20042;-95
2022/03/22 06:54:56;;;;;;;32.25;16.20;;;;;;;2.53;54.85;100441.47;5142627;27;20126;-93
2022/03/22 06:57:24;;;;;;;31.90;15.80;;;;;;;2.58;54.78;100431.09;5141767;27;20166;-95
2022/03/22 06:59:50;;;;;;;33.53;14.77;;;;;;;2.71;54.13;100419.25;5141786;27;20039;-95
2022/03/22 07:02:18;;;;;;;27.27;13.85;;;;;;;2.92;53.49;100419.03;5141742;27;20092;-94
2022/03/22 07:04:44;;;;;;;27.27;13.55;;;;;;;3.07;53.03;100419.50;5141736;27;20045;-94
2022/03/22 07:07:09;;;;;;;26.20;13.10;;;;;;;3.27;51.83;100441.09;5137791;27;20074;-94
2022/03/22 07:09:35;;;;;;;27.10;12.70;;;;;;;3.59;52.42;100451.66;5138517;27;20058;-94
2022/03/22 07:12:01;;;;;;;34.00;13.02;;;;;;;3.76;51.53;100441.59;5138028;27;20492;-94
2022/03/22 07:14:29;;;;;;;27.42;14.45;;;;;;;3.95;50.45;100428.09;5137483;27;20082;-94
2022/03/22 07:16:55;;;;;;;25.02;13.88;;;;;;;4.12;50.01;100425.91;5137080;27;20035;-95
2022/03/22 07:19:23;;;;;;;28.58;13.73;;;;;;;4.30;49.57;100444.78;5136880;27;20039;-94
2022/03/22 07:21:50;;;;;;;25.52;13.57;;;;;;;4.33;49.51;100442.22;5137702;27;20047;-93
2022/03/22 07:24:20;;;;;;;31.90;13.82;;;;;;;4.42;48.86;100438.03;5137201;27;20053;-93
2022/03/22 07:26:46;;;;;;;27.55;12.45;;;;;;;4.71;48.70;100457.19;5138003;27;20047;-94
2022/03/22 07:29:13;;;;;;;33.67;13.57;;;;;;;4.81;48.45;100447.75;5137832;27;20039;-96
2022/03/22 07:31:41;;;;;;;25.95;12.48;;;;;;;4.96;47.93;100434.91;5137390;27;20039;-94
2022/03/22 07:34:07;;;;;;;31.33;13.35;;;;;;;5.20;48.04;100436.31;5137406;27;20039;-95
2022/03/22 07:36:37;;;;;;;28.27;13.45;;;;;;;5.42;47.25;100433.28;5138229;27;20541;-93
2022/03/22 07:39:03;;;;;;;28.70;12.70;;;;;;;5.73;46.46;100450.59;5137589;27;20043;-94
2022/03/22 07:41:30;;;;;;;29.60;12.90;;;;;;;6.05;45.58;100460.91;5137143;27;20035;-94
2022/03/22 07:43:56;;;;;;;27.70;13.55;;;;;;;6.23;45.85;100457.72;5137710;27;20043;-93
2022/03/22 07:46:23;;;;;;;23.75;12.00;;;;;;;6.43;44.52;100457.16;5138171;27;20042;-93
2022/03/22 07:48:51;;;;;;;18.25;10.00;;;;;;;6.48;42.37;100439.63;5138646;27;20126;-94
2022/03/22 07:54:36;;;;;;;19.55;10.55;;;;;;;7.19;41.57;100434.50;5112370;27;20377;-93
2022/03/22 07:57:02;;;;;;;24.58;11.63;;;;;;;7.35;42.04;100437.34;5113543;28;20075;-93
2022/03/22 07:59:28;;;;;;;19.75;10.38;;;;;;;7.52;39.93;100429.63;5112830;28;20089;-92
2022/03/22 08:01:55;;;;;;;17.23;9.25;;;;;;;7.65;37.93;100430.66;5112640;28;20078;-93
2022/03/22 08:04:21;;;;;;;13.85;8.02;;;;;;;7.96;37.96;100445.16;5113044;28;20040;-92
2022/03/22 08:06:47;;;;;;;16.40;9.10;;;;;;;8.05;37.54;100420.50;5112445;28;20097;-93
2022/03/22 08:09:12;;;;;;;14.75;8.18;;;;;;;8.41;37.92;100438.50;5114709;28;20042;-93
2022/03/22 08:11:40;;;;;;;13.32;8.45;;;;;;;8.53;37.47;100417.41;5112193;28;20044;-92
2022/03/22 08:14:06;;;;;;;13.57;7.78;;;;;;;8.54;37.30;100418.28;5111927;28;20039;-92
2022/03/22 08:16:32;;;;;;;15.70;8.18;;;;;;;8.68;37.40;100431.66;5112679;28;20114;-95
2022/03/22 08:18:58;;;;;;;14.73;8.40;;;;;;;8.74;37.35;100423.72;5112357;28;20047;-91
2022/03/22 08:21:24;;;;;;;16.42;8.52;;;;;;;8.82;36.98;100433.50;5112894;28;20036;-93
2022/03/22 08:23:50;;;;;;;17.90;8.90;;;;;;;8.91;36.80;100418.53;5112424;28;20196;-92
2022/03/22 08:26:15;;;;;;;16.77;8.38;;;;;;;8.76;37.56;100425.53;5111966;28;20048;-93
2022/03/22 08:28:43;;;;;;;14.48;8.52;;;;;;;9.02;37.24;100419.50;5111727;28;20139;-92
2022/03/22 08:31:10;;;;;;;15.52;8.77;;;;;;;9.31;37.28;100426.75;5112019;28;20039;-93
2022/03/22 08:33:36;;;;;;;15.98;9.23;;;;;;;9.25;37.21;100423.16;5111923;28;20062;-94
2022/03/22 08:36:03;;;;;;;17.05;10.05;;;;;;;9.31;37.27;100419.66;5111566;28;20497;-93
2022/03/22 08:38:28;;;;;;;18.75;9.40;;;;;;;9.55;36.74;100407.34;5112038;28;20126;-93
2022/03/22 08:40:56;;;;;;;17.85;10.35;;;;;;;9.60;37.27;100409.13;5111784;28;20063;-93
2022/03/22 08:43:26;;;;;;;17.33;10.02;;;;;;;9.53;37.67;100396.72;5112264;28;20047;-92
2022/03/22 08:45:54;;;;;;;16.48;10.05;;;;;;;9.50;37.49;100425.03;5111920;28;20043;-93
2022/03/22 08:48:21;;;;;;;19.13;10.52;;;;;;;9.37;37.59;100417.03;5107603;28;20052;-92
2022/03/22 08:50:49;;;;;;;18.88;9.77;;;;;;;9.68;37.72;100418.91;5111617;28;20058;-94
2022/03/22 08:53:16;;;;;;;15.77;9.38;;;;;;;9.89;37.10;100400.38;5111773;28;20097;-93
2022/03/22 08:55:43;;;;;;;15.48;9.77;;;;;;;10.06;36.02;100408.34;5111855;28;20493;-93
2022/03/22 08:58:09;;;;;;;18.15;9.90;;;;;;;10.00;36.96;100384.44;5111799;28;20093;-92
2022/03/22 09:00:35;;;;;;;21.77;11.10;;;;;;;10.04;36.47;100407.44;5111776;28;20493;-92
2022/03/22 09:03:04;;;;;;;17.20;10.32;;;;;;;9.90;37.01;100372.03;5111897;28;20043;-92
2022/03/22 09:08:31;;;;;;;20.58;12.88;;;;;;;10.20;34.90;100392.44;5146486;27;20369;-92
2022/03/22 09:10:57;;;;;;;20.42;11.68;;;;;;;10.26;34.31;100388.00;5110548;28;20047;-93
2022/03/22 09:13:23;;;;;;;18.58;10.73;;;;;;;10.44;34.16;100379.16;5103110;28;20036;-94
2022/03/22 09:15:51;;;;;;;20.13;10.40;;;;;;;10.65;33.69;100393.34;5092512;28;20526;-94
2022/03/22 09:18:17;;;;;;;18.38;10.90;;;;;;;11.06;33.07;100395.91;5092899;28;20036;-94
2022/03/22 09:20:45;;;;;;;21.80;12.52;;;;;;;10.83;31.96;100373.78;5101301;28;20089;-95
2022/03/22 09:23:12;;;;;;;21.25;12.52;;;;;;;10.86;31.93;100390.63;5101720;28;20080;-93
2022/03/22 09:25:40;;;;;;;19.95;10.80;;;;;;;10.92;30.89;100392.38;5110585;28;20044;-92
2022/03/22 09:28:07;;;;;;;17.60;9.50;;;;;;;11.06;30.20;100377.28;5095046;28;20063;-90
2022/03/22 09:30:34;;;;;;;18.38;10.57;;;;;;;11.24;30.17;100378.97;5112944;28;20043;-94
2022/03/22 09:33:01;;;;;;;19.75;10.82;;;;;;;11.19;30.89;100377.19;5099730;28;20044;-93
2022/03/22 09:35:28;;;;;;;22.73;11.65;;;;;;;11.38;29.52;100356.72;5109178;28;20047;-94
2022/03/22 09:37:55;;;;;;;20.55;12.07;;;;;;;11.41;29.18;100364.72;5108907;28;20505;-94
2022/03/22 09:40:22;;;;;;;20.10;10.85;;;;;;;11.42;29.34;100382.44;5112478;28;20453;-94
2022/03/22 09:42:49;;;;;;;17.55;10.80;;;;;;;11.45;29.56;100363.78;5107031;28;20038;-92
2022/03/22 09:45:17;;;;;;;19.65;11.45;;;;;;;11.47;29.33;100351.31;5100607;28;20055;-92
2022/03/22 09:47:45;;;;;;;18.17;11.63;;;;;;;11.61;29.72;100349.47;5111920;28;20036;-92
2022/03/22 09:50:12;;;;;;;23.38;11.88;;;;;;;11.88;28.45;100360.88;5112481;28;20407;-94
2022/03/22 09:52:38;;;;;;;18.35;10.65;;;;;;;12.18;28.77;100366.91;5104343;28;20489;-93
2022/03/22 09:55:07;;;;;;;20.67;11.82;;;;;;;11.95;29.20;100353.72;5108337;28;20036;-93
2022/03/22 09:57:33;;;;;;;20.83;11.90;;;;;;;12.13;28.49;100369.59;5111464;28;20040;-92
2022/03/22 10:00:01;;;;;;;21.77;10.80;;;;;;;12.19;28.58;100336.66;5107292;28;20044;-92
2022/03/22 10:02:28;;;;;;;18.67;11.40;;;;;;;12.11;29.46;100369.59;5107849;28;20068;-93
2022/03/22 10:04:54;;;;;;;20.67;10.45;;;;;;;12.26;28.06;100344.59;5094144;28;20097;-94
2022/03/22 10:07:21;;;;;;;18.98;11.52;;;;;;;12.10;28.49;100364.28;5107936;28;20040;-91
2022/03/22 10:09:52;;;;;;;20.45;11.73;;;;;;;12.08;29.45;100350.97;5097542;28;20092;-92
2022/03/22 10:12:25;;;;;;;15.43;10.48;;;;;;;12.46;28.39;100339.06;5110221;28;20048;-93
2022/03/22 10:14:51;;;;;;;19.67;11.43;;;;;;;12.39;28.16;100350.72;5098711;28;20044;-93
2022/03/22 10:17:19;;;;;;;22.15;11.10;;;;;;;12.38;28.79;100337.38;5109170;28;20062;-95
2022/03/22 10:19:47;;;;;;;18.90;11.35;;;;;;;12.46;28.61;100338.19;5085933;28;20558;-93
2022/03/22 10:22:14;;;;;;;20.33;11.02;;;;;;;12.68;27.90;100334.41;5084856;28;20592;-92
2022/03/22 10:24:45;;;;;;;17.13;10.45;;;;;;;12.80;27.85;100348.53;5096205;28;20040;-93
2022/03/22 10:27:22;;;;;;;17.75;11.38;;;;;;;12.48;27.90;100325.72;5096109;28;20032;-94
2022/03/22 10:29:48;;;;;;;21.08;11.13;;;;;;;12.68;28.00;100341.53;5094614;28;20100;-92
2022/03/22 10:32:14;;;;;;;18.92;11.45;;;;;;;12.46;28.78;100311.50;5097425;28;20044;-93
2022/03/22 10:34:42;;;;;;;20.10;11.63;;;;;;;12.60;27.92;100312.28;5086134;28;20490;-92
2022/03/22 10:37:08;;;;;;;22.23;11.88;;;;;;;12.68;27.84;100318.38;5097338;28;20490;-92
2022/03/22 10:39:35;;;;;;;25.15;11.88;;;;;;;12.77;28.34;100319.19;5086780;28;20044;-92
2022/03/22 10:42:04;;;;;;;19.15;11.20;;;;;;;12.54;28.59;100318.53;5084129;28;20036;-92
2022/03/22 10:44:34;;;;;;;22.95;10.90;;;;;;;12.77;28.30;100319.19;5094186;28;20048;-93
2022/03/22 10:47:02;;;;;;;22.92;11.27;;;;;;;12.85;28.13;100317.31;5086296;28;20436;-95
2022/03/22 10:49:29;;;;;;;21.80;12.75;;;;;;;12.55;29.30;100295.41;5080673;28;20040;-94
2022/03/22 10:51:56;;;;;;;18.25;11.30;;;;;;;12.69;28.34;100296.16;5093226;28;20036;-92
2022/03/22 10:54:23;;;;;;;17.30;10.73;;;;;;;12.99;28.64;100335.84;5077141;28;20048;-95
2022/03/22 10:56:51;;;;;;;17.17;11.27;;;;;;;13.15;27.83;100321.41;5092607;28;20559;-93
2022/03/22 10:59:18;;;;;;;22.33;12.50;;;;;;;12.89;27.47;100316.38;5091712;28;20389;-93
2022/03/22 11:01:46;;;;;;;18.00;10.88;;;;;;;12.88;28.86;100318.19;5078016;28;20072;-94
2022/03/22 11:04:15;;;;;;;20.75;12.73;;;;;;;12.56;29.21;100305.19;5082848;28;20032;-95
2022/03/22 11:06:41;;;;;;;;;;;;;;;13.00;28.31;100321.59;5097551;28;20048;-94
2022/03/22 11:09:09;;;;;;;17.80;10.85;;;;;;;12.81;27.86;100295.09;5097944;28;19920;-95
2022/03/22 11:11:35;;;;;;;21.95;11.52;;;;;;;13.06;28.82;100318.88;5077551;28;20497;-94
2022/03/22 11:14:02;;;;;;;17.55;11.02;;;;;;;13.02;28.49;100310.00;5090460;28;20103;-94
2022/03/22 11:16:32;;;;;;;18.48;11.65;;;;;;;13.02;28.97;100293.09;5084964;28;20040;-94
2022/03/22 11:19:00;;;;;;;22.10;12.05;;;;;;;13.14;28.69;100304.50;5096889;28;20044;-93
2022/03/22 11:21:26;;;;;;;20.65;11.73;;;;;;;12.95;28.53;100303.84;5085600;28;20048;-93
2022/03/22 11:24:03;;;;;;;20.95;11.52;;;;;;;12.62;28.80;100285.53;5079549;28;20052;-94
2022/03/22 11:26:30;;;;;;;25.90;13.60;;;;;;;12.74;29.08;100274.75;5097130;28;20040;-96
2022/03/22 11:28:57;;;;;;;19.63;12.00;;;;;;;13.09;28.36;100298.31;5085468;28;20401;-92
2022/03/22 11:31:26;;;;;;;22.83;11.70;;;;;;;12.97;29.12;100276.22;5075440;28;20040;-94
2022/03/22 11:36:58;;;;;;;19.95;12.65;;;;;;;12.93;30.14;100275.41;5149516;27;20372;-95
2022/03/22 11:42:26;;;;;;;19.15;12.25;;;;;;;13.12;29.16;100289.41;5114065;27;20737;-95
2022/03/22 11:44:57;;;;;;;23.48;13.40;;;;;;;13.12;29.61;100278.72;5113849;28;20059;-94
2022/03/22 11:47:23;;;;;;;20.40;12.00;;;;;;;13.20;28.24;100234.06;5113339;28;20043;-95
2022/03/22 11:49:51;;;;;;;18.52;11.20;;;;;;;13.12;27.82;100241.34;5113971;28;20052;-94
2022/03/22 11:52:19;;;;;;;20.17;11.63;;;;;;;13.06;28.80;100239.63;5102893;28;20040;-94
2022/03/22 11:54:56;;;;;;;23.65;11.13;;;;;;;13.28;28.05;100250.91;5113495;28;20040;-94
2022/03/22 11:57:23;;;;;;;18.17;10.98;;;;;;;13.37;26.00;100247.22;5112181;28;20039;-92